Hauptseite
METAR-TAF:

METAR-TAF

Flughäfen :

Auckland, Neuseeland

Flughafen Auckland

Breite: 37-01S, Länge: 174-48E, Höhe: 7 m

Beobachtung

Neuester Wetterbericht von vor 40 Minuten, um 11:30 UTC
Wind 4 kt aus Südwest
Temperatur 10°C
Luftfeuchtigkeit 82%
Luftdruck 1009 hPa
Sichtweite 10 km oder mehr

METAR: NZAA 211130Z AUTO 23004KT 9999 NCD 10/07 Q1009 NOSIG

Zeit: 00:10 (12:10 UTC)

Prognose

Neuester Wetterbericht von vor 44 Minuten, um 11:26 UTC
Gültige Prognose vom 21 um 12 UTC bis 22 um 12 UTC
Wind 5 kt aus Süd
Sichtweite 10 km oder mehr
Leicht bewölkt in der Höhe von 4000 ft
Übergehend zu
vom 21 um 23 UTC bis 22 um 01 UTC
Wind 12 kt aus West/Südwest
Übergehend zu
vom 22 um 09 UTC bis 22 um 11 UTC
Wind 5 kt aus Süd/Südost

TAF: NZAA 211126Z 2112/2212 18005KT 9999 FEW040 BECMG 2123/2201 24012KT BECMG 2209/2211 16005KT

Wetterbeobachtungen und Prognosen von mehr als 4000 Flughäfen (METAR und TAF Bericht).

Die verfügbaren Stationen werden durch gelbe und rote Markierungen auf der Karte dargestellt.

Führen Sie die Maus auf sie, um den Namen der Station zu sehen.

Darauf klicken, um die Beobachtung von Wetterbeobachtungen und Prognosen zu sehen.

Um die Karte zu ändern : klicken Sie auf den grünen Tasten mit einem schwarzen Kreuz Zum Vergrößern, auf den grünen Button mit einem Gedankenstrich zu verkleinern, oder auf die grünen Pfeile für benachbarte Karten.


METAR-TAF: